Monday, November 20, 2017, 1:56 PM EST
Back to Local

KHIE, Mt Washington Regional Airport

Location: Jefferson, NH, United States Lat: 44.367
Local Time: 1:56 PM EST (18:56 GMT) Lon: -71.55
Time Zone: US/Eastern Elev: 1072 ft

Show me the last for .
Show Decoded

2017-11-20 12:52 METAR KHIE 201752Z AUTO 26009G18KT 10SM BKN043 OVC055 M03/M11 A2978 RMK AO2
                 SLP100 60000 T10331111 11033 21050 58014 =
2017-11-20 11:52 METAR KHIE 201652Z AUTO 29012KT 10SM BKN043 OVC060 M04/M12 A2980 RMK AO2 SLP108
                 T10391122 =
2017-11-20 10:52 METAR KHIE 201552Z AUTO 28009G16KT 10SM BKN036 OVC046 M04/M11 A2981 RMK AO2
                 SLP110 T10441111 =
2017-11-20 09:52 METAR KHIE 201452Z AUTO 27007G17KT 240V310 10SM OVC034 M05/M12 A2982 RMK AO2
                 SNE07 SLP115 P0000 60000 T10501117 53027 =
2017-11-20 09:09 METAR KHIE 201409Z AUTO 26012G21KT 9SM FEW026 BKN033 OVC045 M04/M09 A2978 RMK
                 AO2 SNE07 P0000 T10441094 =
2017-11-20 08:59 METAR KHIE 201359Z AUTO 29015G21KT 8SM -SN FEW024 BKN029 OVC038 M04/M09 A2978
                 RMK AO2 P0000 T10441089 =
2017-11-20 08:52 METAR KHIE 201352Z AUTO 29012G16KT 2 1/2SM -SN BKN026 OVC033 M04/M09 A2978 RMK
                 AO2 SNB39 SLP099 P0000 T10441089 =
2017-11-20 08:28 METAR KHIE 201328Z AUTO 27007KT 10SM BKN029 BKN034 OVC043 M04/M09 A2977 RMK AO2
                 T10441089 =
2017-11-20 07:52 METAR KHIE 201252Z AUTO 28011G20KT 10SM SCT020 BKN041 OVC050 M04/M09 A2974 RMK
                 AO2 SNE42 SLP086 P0000 T10441089 =
2017-11-20 07:37 METAR KHIE 201237Z AUTO 28010KT 3SM -SN SCT016 BKN024 OVC032 M04/M07 A2974 RMK
                 AO2 P0000 T10391072 =
2017-11-20 07:22 METAR KHIE 201222Z AUTO 28006KT 1 3/4SM -SN BR SCT019 BKN024 OVC035 M04/M06
                 A2973 RMK AO2 P0000 T10391061 =
2017-11-20 07:10 METAR KHIE 201210Z AUTO 29008KT 2 1/2SM -SN BKN022 OVC035 M04/M07 A2971 RMK AO2
                 VIS 2V3 P0000 T10391067 =
2017-11-20 06:52 METAR KHIE 201152Z AUTO 28008KT 6SM -SN SCT024 BKN030 OVC040 M04/M07 A2971 RMK
                 AO2 SLP075 P0000 60000 70014 T10391072 11022 21039 51015 =
2017-11-20 06:47 METAR KHIE 201147Z AUTO 27008KT 9SM -SN SCT024 BKN030 OVC037 M04/M07 A2970 RMK
                 AO2 P0000 =
2017-11-20 05:52 METAR KHIE 201052Z AUTO 28007KT 9SM -SN BKN028 BKN037 OVC050 M03/M08 A2968 RMK
                 AO2 SNB43 SLP066 P0000 T10331078 =
2017-11-20 04:52 METAR KHIE 200952Z AUTO 29006KT 10SM FEW026 SCT050 OVC065 M03/M08 A2966 RMK AO2
                 SLP059 T10331078 =
2017-11-20 03:52 METAR KHIE 200852Z AUTO 27011G17KT 10SM FEW024 FEW029 OVC085 M03/M07 A2964 RMK
                 AO2 SLP050 T10281072 51011 =
2017-11-20 02:52 METAR KHIE 200752Z AUTO VRB04KT 10SM BKN024 OVC031 M03/M07 A2962 RMK AO2 SLP044
                 T10331067 =
2017-11-20 02:24 METAR KHIE 200724Z AUTO VRB06KT 10SM BKN024 BKN032 OVC085 M03/M07 A2962 RMK AO2
                 T10281067 =
2017-11-20 02:01 METAR KHIE 200701Z AUTO 27009G15KT 10SM SCT026 BKN030 OVC070 M03/M07 A2962 RMK
                 AO2 T10281072 =
2017-11-20 01:52 METAR KHIE 200652Z AUTO 28007G17KT 10SM BKN026 OVC060 M03/M07 A2960 RMK AO2
                 SLP038 T10281072 =
2017-11-20 01:02 METAR KHIE 200602Z AUTO 27014G23KT 10SM BKN027 OVC060 M02/M07 A2957 RMK AO2
                 T10221067 =
2017-11-20 00:52 METAR KHIE 200552Z AUTO 28012G19KT 10SM SCT026 SCT033 OVC060 M02/M07 A2958 RMK
                 AO2 SNE04 SLP031 P0000 60000 T10221067 11011 21022 51016 =
2017-11-19 23:52 METAR KHIE 200452Z AUTO 28012G17KT 9SM -SN FEW025 BKN036 OVC060 M02/M06 A2956
                 RMK AO2 SNB08 SLP023 P0000 T10171061 401061017 =
2017-11-19 23:47 METAR KHIE 200447Z AUTO 29011G18KT 9SM -SN FEW021 BKN039 OVC060 M02/M06 A2956
                 RMK AO2 SNB08 P0000 =
2017-11-19 22:52 METAR KHIE 200352Z AUTO 27010KT 10SM BKN026 BKN031 OVC040 M02/M06 A2953 RMK AO2
                 SLP010 T10171056 =
2017-11-19 21:52 METAR KHIE 200252Z AUTO 25012G16KT 10SM OVC028 M02/M06 A2952 RMK AO2 SNB04E29
                 SLP006 P0000 60000 T10171061 53009 =
2017-11-19 21:31 METAR KHIE 200231Z AUTO 26005KT 9SM BKN028 OVC036 M02/M06 A2952 RMK AO2 SNB04E29
                 P0000 T10171061 =
2017-11-19 20:52 METAR KHIE 200152Z AUTO 26010G19KT 10SM OVC031 M01/M06 A2950 RMK AO2 SLP000
                 T10111061 =
2017-11-19 20:47 METAR KHIE 200147Z AUTO 27012G19KT 10SM OVC031 M01/M06 A2950 RMK AO2 =
2017-11-19 19:52 METAR KHIE 200052Z AUTO 28007G17KT 9SM BKN027 OVC032 M02/M06 A2949 RMK AO2
                 SNB2355E48 SLP999 P0000 T10171061 =
2017-11-19 18:52 METAR KHIE 192352Z AUTO 27011KT 9SM OVC027 M02/M06 A2948 RMK AO2 PK WND
                 24027/2253 SNE48 SLP993 P0000 60001 T10171061 10022 21017 51038 =
2017-11-19 17:52 METAR KHIE 192252Z AUTO 28016G31KT 10SM -SN OVC026 M02/M07 A2945 RMK AO2 PK WND
                 29032/2242 SNE24B52 SLP985 P0000 T10171067 =
2017-11-19 16:52 METAR KHIE 192152Z AUTO 27015G25KT 10SM -SN BKN024 OVC029 M01/M05 A2941 RMK AO2
                 PK WND 28030/2111 SNB48 SLP971 P0000 T10111050 =
2017-11-19 16:18 METAR KHIE 192118Z AUTO 28017G30KT 10SM OVC029 M01/M06 A2938 RMK AO2 PK WND
                 28030/2111 T10061056 =
2017-11-19 15:52 METAR KHIE 192052Z AUTO 29010G18KT 10SM OVC032 00/M04 A2936 RMK AO2 SLP953 60001
                 T00001044 51037 =
2017-11-19 15:49 METAR KHIE 192049Z AUTO 29010KT 10SM BKN028 OVC035 00/M04 A2936 RMK AO2 =
2017-11-19 15:09 METAR KHIE 192009Z AUTO 27011G23KT 10SM SCT023 OVC031 01/M04 A2931 RMK AO2
                 T00061039 =
2017-11-19 14:52 METAR KHIE 191952Z AUTO 28011G19KT 10SM BKN021 OVC029 01/M02 A2930 RMK AO2
                 PRESRR SLP933 T00061022 =

Support USWX by starting your Amazon purchase here.